sensor_id;sensor_type;location;lat;lon;timestamp;P1;durP1;ratioP1;P2;durP2;ratioP2
5620;SDS011;2832;50.864;12.186;2023-07-09T00:01:55;0.40;;;0.40;;
5620;SDS011;2832;50.864;12.186;2023-07-09T00:04:25;0.60;;;0.60;;
5620;SDS011;2832;50.864;12.186;2023-07-09T00:06:55;0.60;;;0.60;;
5620;SDS011;2832;50.864;12.186;2023-07-09T00:09:27;0.50;;;0.50;;
5620;SDS011;2832;50.864;12.186;2023-07-09T00:11:55;0.50;;;0.50;;
5620;SDS011;2832;50.864;12.186;2023-07-09T00:14:25;0.60;;;0.60;;
5620;SDS011;2832;50.864;12.186;2023-07-09T00:16:53;0.50;;;0.50;;
5620;SDS011;2832;50.864;12.186;2023-07-09T00:19:22;0.50;;;0.50;;
5620;SDS011;2832;50.864;12.186;2023-07-09T00:21:52;0.50;;;0.50;;
5620;SDS011;2832;50.864;12.186;2023-07-09T00:24:20;0.50;;;0.50;;
5620;SDS011;2832;50.864;12.186;2023-07-09T00:26:49;0.50;;;0.50;;
5620;SDS011;2832;50.864;12.186;2023-07-09T00:29:17;0.50;;;0.50;;
5620;SDS011;2832;50.864;12.186;2023-07-09T00:31:45;0.50;;;0.50;;
5620;SDS011;2832;50.864;12.186;2023-07-09T00:34:14;0.50;;;0.50;;
5620;SDS011;2832;50.864;12.186;2023-07-09T00:36:47;0.50;;;0.50;;
5620;SDS011;2832;50.864;12.186;2023-07-09T00:39:18;0.50;;;0.50;;
5620;SDS011;2832;50.864;12.186;2023-07-09T00:41:47;0.50;;;0.50;;
5620;SDS011;2832;50.864;12.186;2023-07-09T00:44:21;0.50;;;0.50;;
5620;SDS011;2832;50.864;12.186;2023-07-09T00:47:13;0.50;;;0.50;;
5620;SDS011;2832;50.864;12.186;2023-07-09T00:49:53;0.50;;;0.50;;
5620;SDS011;2832;50.864;12.186;2023-07-09T00:52:28;0.50;;;0.50;;
5620;SDS011;2832;50.864;12.186;2023-07-09T00:55:03;0.52;;;0.52;;
5620;SDS011;2832;50.864;12.186;2023-07-09T00:57:35;0.60;;;0.60;;
5620;SDS011;2832;50.864;12.186;2023-07-09T01:00:09;0.50;;;0.50;;
5620;SDS011;2832;50.864;12.186;2023-07-09T01:02:43;0.50;;;0.50;;
5620;SDS011;2832;50.864;12.186;2023-07-09T01:05:18;0.50;;;0.50;;
5620;SDS011;2832;50.864;12.186;2023-07-09T01:07:54;0.57;;;0.57;;
5620;SDS011;2832;50.864;12.186;2023-07-09T01:10:26;0.60;;;0.60;;
5620;SDS011;2832;50.864;12.186;2023-07-09T01:12:55;0.50;;;0.50;;
5620;SDS011;2832;50.864;12.186;2023-07-09T01:15:24;0.50;;;0.50;;
5620;SDS011;2832;50.864;12.186;2023-07-09T01:17:52;0.50;;;0.50;;
5620;SDS011;2832;50.864;12.186;2023-07-09T01:20:20;0.57;;;0.57;;
5620;SDS011;2832;50.864;12.186;2023-07-09T01:22:50;0.60;;;0.60;;
5620;SDS011;2832;50.864;12.186;2023-07-09T01:25:21;0.50;;;0.50;;
5620;SDS011;2832;50.864;12.186;2023-07-09T01:27:52;0.50;;;0.50;;
5620;SDS011;2832;50.864;12.186;2023-07-09T01:30:22;0.50;;;0.50;;
5620;SDS011;2832;50.864;12.186;2023-07-09T01:32:55;0.50;;;0.50;;
5620;SDS011;2832;50.864;12.186;2023-07-09T01:35:28;0.60;;;0.60;;
5620;SDS011;2832;50.864;12.186;2023-07-09T01:38:00;0.50;;;0.50;;
5620;SDS011;2832;50.864;12.186;2023-07-09T01:40:32;0.50;;;0.50;;
5620;SDS011;2832;50.864;12.186;2023-07-09T01:43:01;0.50;;;0.50;;
5620;SDS011;2832;50.864;12.186;2023-07-09T01:45:32;0.50;;;0.50;;
5620;SDS011;2832;50.864;12.186;2023-07-09T01:48:00;0.60;;;0.60;;
5620;SDS011;2832;50.864;12.186;2023-07-09T01:50:30;0.60;;;0.60;;
5620;SDS011;2832;50.864;12.186;2023-07-09T01:53:00;0.47;;;0.47;;
5620;SDS011;2832;50.864;12.186;2023-07-09T01:55:28;0.50;;;0.50;;
5620;SDS011;2832;50.864;12.186;2023-07-09T01:57:57;0.50;;;0.50;;
5620;SDS011;2832;50.864;12.186;2023-07-09T02:00:25;0.50;;;0.50;;
5620;SDS011;2832;50.864;12.186;2023-07-09T02:02:53;0.47;;;0.47;;
5620;SDS011;2832;50.864;12.186;2023-07-09T02:05:24;0.50;;;0.50;;
5620;SDS011;2832;50.864;12.186;2023-07-09T02:07:54;0.60;;;0.60;;
5620;SDS011;2832;50.864;12.186;2023-07-09T02:10:25;0.60;;;0.60;;
5620;SDS011;2832;50.864;12.186;2023-07-09T02:12:54;0.40;;;0.40;;
5620;SDS011;2832;50.864;12.186;2023-07-09T02:15:22;0.52;;;0.52;;
5620;SDS011;2832;50.864;12.186;2023-07-09T02:17:49;0.50;;;0.50;;
5620;SDS011;2832;50.864;12.186;2023-07-09T02:20:18;0.50;;;0.50;;
5620;SDS011;2832;50.864;12.186;2023-07-09T02:22:46;0.50;;;0.50;;
5620;SDS011;2832;50.864;12.186;2023-07-09T02:25:18;0.57;;;0.57;;
5620;SDS011;2832;50.864;12.186;2023-07-09T02:27:47;0.50;;;0.50;;
5620;SDS011;2832;50.864;12.186;2023-07-09T02:30:17;0.60;;;0.60;;
5620;SDS011;2832;50.864;12.186;2023-07-09T02:32:46;0.50;;;0.50;;
5620;SDS011;2832;50.864;12.186;2023-07-09T02:35:14;0.50;;;0.50;;
5620;SDS011;2832;50.864;12.186;2023-07-09T02:37:46;0.60;;;0.60;;
5620;SDS011;2832;50.864;12.186;2023-07-09T02:40:16;0.50;;;0.50;;
5620;SDS011;2832;50.864;12.186;2023-07-09T02:42:43;0.40;;;0.40;;
5620;SDS011;2832;50.864;12.186;2023-07-09T02:45:13;0.50;;;0.50;;
5620;SDS011;2832;50.864;12.186;2023-07-09T02:47:41;0.50;;;0.50;;
5620;SDS011;2832;50.864;12.186;2023-07-09T02:50:10;0.50;;;0.50;;
5620;SDS011;2832;50.864;12.186;2023-07-09T02:52:38;0.50;;;0.50;;
5620;SDS011;2832;50.864;12.186;2023-07-09T02:55:07;0.47;;;0.47;;
5620;SDS011;2832;50.864;12.186;2023-07-09T02:57:35;0.50;;;0.50;;
5620;SDS011;2832;50.864;12.186;2023-07-09T03:00:04;0.60;;;0.60;;
5620;SDS011;2832;50.864;12.186;2023-07-09T03:02:34;0.57;;;0.57;;
5620;SDS011;2832;50.864;12.186;2023-07-09T03:05:38;0.50;;;0.50;;
5620;SDS011;2832;50.864;12.186;2023-07-09T03:08:10;0.50;;;0.50;;
5620;SDS011;2832;50.864;12.186;2023-07-09T03:10:38;0.50;;;0.50;;
5620;SDS011;2832;50.864;12.186;2023-07-09T03:13:06;0.57;;;0.57;;
5620;SDS011;2832;50.864;12.186;2023-07-09T03:15:35;0.60;;;0.60;;
5620;SDS011;2832;50.864;12.186;2023-07-09T03:18:06;0.50;;;0.50;;
5620;SDS011;2832;50.864;12.186;2023-07-09T03:20:34;0.50;;;0.50;;
5620;SDS011;2832;50.864;12.186;2023-07-09T03:23:04;0.60;;;0.60;;
5620;SDS011;2832;50.864;12.186;2023-07-09T03:25:32;0.60;;;0.60;;
5620;SDS011;2832;50.864;12.186;2023-07-09T03:28:00;0.60;;;0.60;;
5620;SDS011;2832;50.864;12.186;2023-07-09T03:30:28;0.60;;;0.60;;
5620;SDS011;2832;50.864;12.186;2023-07-09T03:32:56;0.60;;;0.60;;
5620;SDS011;2832;50.864;12.186;2023-07-09T03:35:25;0.50;;;0.50;;
5620;SDS011;2832;50.864;12.186;2023-07-09T03:37:53;0.60;;;0.60;;
5620;SDS011;2832;50.864;12.186;2023-07-09T03:40:22;0.53;;;0.53;;
5620;SDS011;2832;50.864;12.186;2023-07-09T03:42:50;0.60;;;0.60;;
5620;SDS011;2832;50.864;12.186;2023-07-09T03:45:18;0.50;;;0.50;;
5620;SDS011;2832;50.864;12.186;2023-07-09T03:47:45;0.50;;;0.50;;
5620;SDS011;2832;50.864;12.186;2023-07-09T03:50:13;0.50;;;0.50;;
5620;SDS011;2832;50.864;12.186;2023-07-09T03:52:43;0.60;;;0.60;;
5620;SDS011;2832;50.864;12.186;2023-07-09T03:55:11;0.60;;;0.60;;
5620;SDS011;2832;50.864;12.186;2023-07-09T03:57:40;0.70;;;0.70;;
5620;SDS011;2832;50.864;12.186;2023-07-09T04:00:09;0.50;;;0.50;;
5620;SDS011;2832;50.864;12.186;2023-07-09T04:02:37;0.50;;;0.50;;
5620;SDS011;2832;50.864;12.186;2023-07-09T04:05:06;0.50;;;0.50;;
5620;SDS011;2832;50.864;12.186;2023-07-09T04:07:34;0.60;;;0.60;;
5620;SDS011;2832;50.864;12.186;2023-07-09T04:10:04;0.50;;;0.50;;
5620;SDS011;2832;50.864;12.186;2023-07-09T04:12:32;0.67;;;0.67;;
5620;SDS011;2832;50.864;12.186;2023-07-09T04:15:00;0.60;;;0.60;;
5620;SDS011;2832;50.864;12.186;2023-07-09T04:17:29;0.60;;;0.60;;
5620;SDS011;2832;50.864;12.186;2023-07-09T04:19:56;0.60;;;0.60;;
5620;SDS011;2832;50.864;12.186;2023-07-09T04:22:24;0.50;;;0.50;;
5620;SDS011;2832;50.864;12.186;2023-07-09T04:24:52;0.60;;;0.60;;
5620;SDS011;2832;50.864;12.186;2023-07-09T04:27:22;0.50;;;0.50;;
5620;SDS011;2832;50.864;12.186;2023-07-09T04:29:53;0.50;;;0.50;;
5620;SDS011;2832;50.864;12.186;2023-07-09T04:32:21;0.10;;;0.10;;
5620;SDS011;2832;50.864;12.186;2023-07-09T04:34:49;0.50;;;0.50;;
5620;SDS011;2832;50.864;12.186;2023-07-09T04:37:17;0.50;;;0.50;;
5620;SDS011;2832;50.864;12.186;2023-07-09T04:39:44;0.57;;;0.57;;
5620;SDS011;2832;50.864;12.186;2023-07-09T04:42:15;0.67;;;0.67;;
5620;SDS011;2832;50.864;12.186;2023-07-09T04:44:46;0.60;;;0.60;;
5620;SDS011;2832;50.864;12.186;2023-07-09T04:47:14;0.53;;;0.53;;
5620;SDS011;2832;50.864;12.186;2023-07-09T04:49:43;0.53;;;0.53;;
5620;SDS011;2832;50.864;12.186;2023-07-09T04:52:11;0.60;;;0.60;;
5620;SDS011;2832;50.864;12.186;2023-07-09T04:54:40;0.60;;;0.60;;
5620;SDS011;2832;50.864;12.186;2023-07-09T04:57:10;0.50;;;0.50;;
5620;SDS011;2832;50.864;12.186;2023-07-09T04:59:39;0.57;;;0.57;;
5620;SDS011;2832;50.864;12.186;2023-07-09T05:02:09;0.50;;;0.50;;
5620;SDS011;2832;50.864;12.186;2023-07-09T05:04:37;0.60;;;0.60;;
5620;SDS011;2832;50.864;12.186;2023-07-09T05:07:12;0.50;;;0.50;;
5620;SDS011;2832;50.864;12.186;2023-07-09T05:09:39;0.50;;;0.50;;
5620;SDS011;2832;50.864;12.186;2023-07-09T05:12:09;0.70;;;0.70;;
5620;SDS011;2832;50.864;12.186;2023-07-09T05:14:37;0.60;;;0.60;;
5620;SDS011;2832;50.864;12.186;2023-07-09T05:17:05;0.70;;;0.70;;
5620;SDS011;2832;50.864;12.186;2023-07-09T05:19:35;0.60;;;0.60;;
5620;SDS011;2832;50.864;12.186;2023-07-09T05:22:04;0.60;;;0.60;;
5620;SDS011;2832;50.864;12.186;2023-07-09T05:24:33;0.60;;;0.60;;
5620;SDS011;2832;50.864;12.186;2023-07-09T05:27:00;0.60;;;0.60;;
5620;SDS011;2832;50.864;12.186;2023-07-09T05:29:28;0.70;;;0.70;;
5620;SDS011;2832;50.864;12.186;2023-07-09T05:31:56;0.60;;;0.60;;
5620;SDS011;2832;50.864;12.186;2023-07-09T05:34:24;0.60;;;0.60;;
5620;SDS011;2832;50.864;12.186;2023-07-09T05:36:53;0.70;;;0.70;;
5620;SDS011;2832;50.864;12.186;2023-07-09T05:39:21;0.60;;;0.60;;
5620;SDS011;2832;50.864;12.186;2023-07-09T05:41:49;0.70;;;0.70;;
5620;SDS011;2832;50.864;12.186;2023-07-09T05:44:17;0.63;;;0.63;;
5620;SDS011;2832;50.864;12.186;2023-07-09T05:46:45;0.60;;;0.60;;
5620;SDS011;2832;50.864;12.186;2023-07-09T05:49:15;0.60;;;0.60;;
5620;SDS011;2832;50.864;12.186;2023-07-09T05:51:43;0.60;;;0.60;;
5620;SDS011;2832;50.864;12.186;2023-07-09T05:54:14;0.60;;;0.60;;
5620;SDS011;2832;50.864;12.186;2023-07-09T05:56:42;0.60;;;0.60;;
5620;SDS011;2832;50.864;12.186;2023-07-09T05:59:10;0.50;;;0.50;;
5620;SDS011;2832;50.864;12.186;2023-07-09T06:01:38;0.60;;;0.60;;
5620;SDS011;2832;50.864;12.186;2023-07-09T06:07:25;0.60;;;0.60;;
5620;SDS011;2832;50.864;12.186;2023-07-09T06:10:01;0.70;;;0.70;;
5620;SDS011;2832;50.864;12.186;2023-07-09T06:12:29;0.60;;;0.60;;
5620;SDS011;2832;50.864;12.186;2023-07-09T06:14:57;0.60;;;0.60;;
5620;SDS011;2832;50.864;12.186;2023-07-09T06:17:26;0.60;;;0.60;;
5620;SDS011;2832;50.864;12.186;2023-07-09T06:19:54;0.60;;;0.60;;
5620;SDS011;2832;50.864;12.186;2023-07-09T06:22:22;0.60;;;0.60;;
5620;SDS011;2832;50.864;12.186;2023-07-09T06:24:50;0.60;;;0.60;;
5620;SDS011;2832;50.864;12.186;2023-07-09T06:27:19;0.50;;;0.50;;
5620;SDS011;2832;50.864;12.186;2023-07-09T06:29:47;0.67;;;0.67;;
5620;SDS011;2832;50.864;12.186;2023-07-09T06:32:15;0.60;;;0.60;;
5620;SDS011;2832;50.864;12.186;2023-07-09T06:34:43;0.60;;;0.60;;
5620;SDS011;2832;50.864;12.186;2023-07-09T06:37:11;0.70;;;0.70;;
5620;SDS011;2832;50.864;12.186;2023-07-09T06:39:40;0.60;;;0.60;;
5620;SDS011;2832;50.864;12.186;2023-07-09T06:42:08;0.60;;;0.60;;
5620;SDS011;2832;50.864;12.186;2023-07-09T06:44:38;0.60;;;0.60;;
5620;SDS011;2832;50.864;12.186;2023-07-09T06:47:06;0.50;;;0.50;;
5620;SDS011;2832;50.864;12.186;2023-07-09T06:49:34;0.60;;;0.60;;
5620;SDS011;2832;50.864;12.186;2023-07-09T06:52:02;0.50;;;0.50;;
5620;SDS011;2832;50.864;12.186;2023-07-09T06:54:30;0.60;;;0.60;;
5620;SDS011;2832;50.864;12.186;2023-07-09T06:56:58;0.70;;;0.70;;
5620;SDS011;2832;50.864;12.186;2023-07-09T06:59:25;0.60;;;0.60;;
5620;SDS011;2832;50.864;12.186;2023-07-09T07:01:55;0.53;;;0.53;;
5620;SDS011;2832;50.864;12.186;2023-07-09T07:04:25;0.60;;;0.60;;
5620;SDS011;2832;50.864;12.186;2023-07-09T07:06:54;0.60;;;0.60;;
5620;SDS011;2832;50.864;12.186;2023-07-09T07:09:22;0.60;;;0.60;;
5620;SDS011;2832;50.864;12.186;2023-07-09T07:11:50;0.50;;;0.50;;
5620;SDS011;2832;50.864;12.186;2023-07-09T07:14:18;0.70;;;0.70;;
5620;SDS011;2832;50.864;12.186;2023-07-09T07:16:47;0.50;;;0.50;;
5620;SDS011;2832;50.864;12.186;2023-07-09T07:19:17;0.60;;;0.60;;
5620;SDS011;2832;50.864;12.186;2023-07-09T07:21:45;0.60;;;0.60;;
5620;SDS011;2832;50.864;12.186;2023-07-09T07:24:13;0.70;;;0.70;;
5620;SDS011;2832;50.864;12.186;2023-07-09T07:26:41;0.50;;;0.50;;
5620;SDS011;2832;50.864;12.186;2023-07-09T07:29:10;0.60;;;0.60;;
5620;SDS011;2832;50.864;12.186;2023-07-09T07:31:39;0.60;;;0.60;;
5620;SDS011;2832;50.864;12.186;2023-07-09T07:34:06;0.50;;;0.50;;
5620;SDS011;2832;50.864;12.186;2023-07-09T07:36:36;0.50;;;0.50;;
5620;SDS011;2832;50.864;12.186;2023-07-09T07:39:07;0.40;;;0.40;;
5620;SDS011;2832;50.864;12.186;2023-07-09T07:41:38;0.40;;;0.40;;
5620;SDS011;2832;50.864;12.186;2023-07-09T07:44:08;0.40;;;0.40;;
5620;SDS011;2832;50.864;12.186;2023-07-09T07:46:38;0.52;;;0.52;;
5620;SDS011;2832;50.864;12.186;2023-07-09T07:49:08;0.50;;;0.50;;
5620;SDS011;2832;50.864;12.186;2023-07-09T07:51:37;0.50;;;0.50;;
5620;SDS011;2832;50.864;12.186;2023-07-09T07:54:06;0.50;;;0.50;;
5620;SDS011;2832;50.864;12.186;2023-07-09T07:56:36;0.50;;;0.50;;
5620;SDS011;2832;50.864;12.186;2023-07-09T07:59:04;0.52;;;0.52;;
5620;SDS011;2832;50.864;12.186;2023-07-09T08:01:32;0.50;;;0.50;;
5620;SDS011;2832;50.864;12.186;2023-07-09T08:04:01;0.60;;;0.60;;
5620;SDS011;2832;50.864;12.186;2023-07-09T08:06:32;0.50;;;0.50;;
5620;SDS011;2832;50.864;12.186;2023-07-09T08:09:02;0.60;;;0.60;;
5620;SDS011;2832;50.864;12.186;2023-07-09T08:11:30;0.60;;;0.60;;
5620;SDS011;2832;50.864;12.186;2023-07-09T08:13:59;0.50;;;0.50;;
5620;SDS011;2832;50.864;12.186;2023-07-09T08:16:27;0.50;;;0.50;;
5620;SDS011;2832;50.864;12.186;2023-07-09T08:18:58;0.60;;;0.60;;
5620;SDS011;2832;50.864;12.186;2023-07-09T08:21:26;0.50;;;0.50;;
5620;SDS011;2832;50.864;12.186;2023-07-09T08:23:54;0.60;;;0.60;;
5620;SDS011;2832;50.864;12.186;2023-07-09T08:26:25;0.60;;;0.60;;
5620;SDS011;2832;50.864;12.186;2023-07-09T08:28:53;0.50;;;0.50;;
5620;SDS011;2832;50.864;12.186;2023-07-09T08:31:21;0.50;;;0.50;;
5620;SDS011;2832;50.864;12.186;2023-07-09T08:33:49;0.50;;;0.50;;
5620;SDS011;2832;50.864;12.186;2023-07-09T08:36:17;0.50;;;0.50;;
5620;SDS011;2832;50.864;12.186;2023-07-09T08:38:45;0.50;;;0.50;;
5620;SDS011;2832;50.864;12.186;2023-07-09T08:41:17;0.50;;;0.50;;
5620;SDS011;2832;50.864;12.186;2023-07-09T08:44:03;0.50;;;0.50;;
5620;SDS011;2832;50.864;12.186;2023-07-09T08:46:45;0.40;;;0.40;;
5620;SDS011;2832;50.864;12.186;2023-07-09T08:49:21;0.50;;;0.50;;
5620;SDS011;2832;50.864;12.186;2023-07-09T08:51:58;0.60;;;0.60;;
5620;SDS011;2832;50.864;12.186;2023-07-09T08:54:28;0.43;;;0.43;;
5620;SDS011;2832;50.864;12.186;2023-07-09T08:57:02;0.47;;;0.47;;
5620;SDS011;2832;50.864;12.186;2023-07-09T08:59:41;0.40;;;0.40;;
5620;SDS011;2832;50.864;12.186;2023-07-09T09:02:15;0.50;;;0.50;;
5620;SDS011;2832;50.864;12.186;2023-07-09T09:04:50;0.50;;;0.50;;
5620;SDS011;2832;50.864;12.186;2023-07-09T09:07:26;0.50;;;0.50;;
5620;SDS011;2832;50.864;12.186;2023-07-09T09:10:02;0.40;;;0.40;;
5620;SDS011;2832;50.864;12.186;2023-07-09T09:12:35;0.50;;;0.50;;
5620;SDS011;2832;50.864;12.186;2023-07-09T09:15:10;0.40;;;0.40;;
5620;SDS011;2832;50.864;12.186;2023-07-09T09:17:42;0.40;;;0.40;;
5620;SDS011;2832;50.864;12.186;2023-07-09T09:20:12;0.50;;;0.50;;
5620;SDS011;2832;50.864;12.186;2023-07-09T09:22:46;0.43;;;0.43;;
5620;SDS011;2832;50.864;12.186;2023-07-09T09:25:22;0.47;;;0.47;;
5620;SDS011;2832;50.864;12.186;2023-07-09T09:27:58;0.40;;;0.40;;
5620;SDS011;2832;50.864;12.186;2023-07-09T09:30:39;0.50;;;0.50;;
5620;SDS011;2832;50.864;12.186;2023-07-09T09:33:16;0.50;;;0.50;;
5620;SDS011;2832;50.864;12.186;2023-07-09T09:35:44;0.40;;;0.40;;
5620;SDS011;2832;50.864;12.186;2023-07-09T09:38:16;0.50;;;0.50;;
5620;SDS011;2832;50.864;12.186;2023-07-09T09:40:44;0.40;;;0.40;;
5620;SDS011;2832;50.864;12.186;2023-07-09T09:43:14;0.40;;;0.40;;
5620;SDS011;2832;50.864;12.186;2023-07-09T09:45:45;0.40;;;0.40;;
5620;SDS011;2832;50.864;12.186;2023-07-09T09:48:16;0.40;;;0.40;;
5620;SDS011;2832;50.864;12.186;2023-07-09T09:50:45;0.50;;;0.50;;
5620;SDS011;2832;50.864;12.186;2023-07-09T09:53:18;0.40;;;0.40;;
5620;SDS011;2832;50.864;12.186;2023-07-09T09:55:48;0.50;;;0.50;;
5620;SDS011;2832;50.864;12.186;2023-07-09T09:58:26;0.40;;;0.40;;
5620;SDS011;2832;50.864;12.186;2023-07-09T10:01:02;0.50;;;0.50;;
5620;SDS011;2832;50.864;12.186;2023-07-09T10:03:34;0.40;;;0.40;;
5620;SDS011;2832;50.864;12.186;2023-07-09T10:06:04;0.40;;;0.40;;
5620;SDS011;2832;50.864;12.186;2023-07-09T10:08:40;0.50;;;0.50;;
5620;SDS011;2832;50.864;12.186;2023-07-09T10:11:19;0.40;;;0.40;;
5620;SDS011;2832;50.864;12.186;2023-07-09T10:13:58;0.40;;;0.40;;
5620;SDS011;2832;50.864;12.186;2023-07-09T10:16:36;0.45;;;0.45;;
5620;SDS011;2832;50.864;12.186;2023-07-09T10:19:16;0.50;;;0.50;;
5620;SDS011;2832;50.864;12.186;2023-07-09T10:21:51;0.50;;;0.50;;
5620;SDS011;2832;50.864;12.186;2023-07-09T10:24:29;0.50;;;0.50;;
5620;SDS011;2832;50.864;12.186;2023-07-09T10:27:08;0.40;;;0.40;;
5620;SDS011;2832;50.864;12.186;2023-07-09T10:29:52;0.40;;;0.40;;
5620;SDS011;2832;50.864;12.186;2023-07-09T10:32:39;0.50;;;0.50;;
5620;SDS011;2832;50.864;12.186;2023-07-09T10:35:18;0.40;;;0.40;;
5620;SDS011;2832;50.864;12.186;2023-07-09T10:38:03;0.40;;;0.40;;
5620;SDS011;2832;50.864;12.186;2023-07-09T10:40:50;0.50;;;0.50;;
5620;SDS011;2832;50.864;12.186;2023-07-09T10:43:22;0.40;;;0.40;;
5620;SDS011;2832;50.864;12.186;2023-07-09T10:45:59;0.50;;;0.50;;
5620;SDS011;2832;50.864;12.186;2023-07-09T10:48:37;0.40;;;0.40;;
5620;SDS011;2832;50.864;12.186;2023-07-09T10:51:13;0.45;;;0.45;;
5620;SDS011;2832;50.864;12.186;2023-07-09T10:53:48;0.40;;;0.40;;
5620;SDS011;2832;50.864;12.186;2023-07-09T10:56:24;0.40;;;0.40;;
5620;SDS011;2832;50.864;12.186;2023-07-09T10:58:56;0.45;;;0.45;;
5620;SDS011;2832;50.864;12.186;2023-07-09T11:01:34;0.40;;;0.40;;
5620;SDS011;2832;50.864;12.186;2023-07-09T11:04:20;0.40;;;0.40;;
5620;SDS011;2832;50.864;12.186;2023-07-09T11:06:57;0.40;;;0.40;;
5620;SDS011;2832;50.864;12.186;2023-07-09T11:09:30;0.47;;;0.47;;
5620;SDS011;2832;50.864;12.186;2023-07-09T11:12:02;0.40;;;0.40;;
5620;SDS011;2832;50.864;12.186;2023-07-09T11:14:34;0.45;;;0.45;;
5620;SDS011;2832;50.864;12.186;2023-07-09T11:17:07;0.40;;;0.40;;
5620;SDS011;2832;50.864;12.186;2023-07-09T11:19:41;0.40;;;0.40;;
5620;SDS011;2832;50.864;12.186;2023-07-09T11:22:15;0.40;;;0.40;;
5620;SDS011;2832;50.864;12.186;2023-07-09T11:24:48;0.50;;;0.50;;
5620;SDS011;2832;50.864;12.186;2023-07-09T11:27:21;0.40;;;0.40;;
5620;SDS011;2832;50.864;12.186;2023-07-09T11:29:56;0.40;;;0.40;;
5620;SDS011;2832;50.864;12.186;2023-07-09T11:32:28;0.40;;;0.40;;
5620;SDS011;2832;50.864;12.186;2023-07-09T11:35:06;0.40;;;0.40;;
5620;SDS011;2832;50.864;12.186;2023-07-09T11:37:44;0.40;;;0.40;;
5620;SDS011;2832;50.864;12.186;2023-07-09T11:40:13;0.40;;;0.40;;
5620;SDS011;2832;50.864;12.186;2023-07-09T11:42:48;0.40;;;0.40;;
5620;SDS011;2832;50.864;12.186;2023-07-09T11:45:23;0.40;;;0.40;;
5620;SDS011;2832;50.864;12.186;2023-07-09T11:47:57;0.40;;;0.40;;
5620;SDS011;2832;50.864;12.186;2023-07-09T11:50:32;0.40;;;0.40;;
5620;SDS011;2832;50.864;12.186;2023-07-09T11:53:04;0.40;;;0.40;;
5620;SDS011;2832;50.864;12.186;2023-07-09T11:56:02;0.40;;;0.40;;
5620;SDS011;2832;50.864;12.186;2023-07-09T11:58:30;0.50;;;0.50;;
5620;SDS011;2832;50.864;12.186;2023-07-09T12:00:59;0.40;;;0.40;;
5620;SDS011;2832;50.864;12.186;2023-07-09T12:03:31;0.50;;;0.50;;
5620;SDS011;2832;50.864;12.186;2023-07-09T12:06:03;0.35;;;0.35;;
5620;SDS011;2832;50.864;12.186;2023-07-09T12:08:33;0.40;;;0.40;;
5620;SDS011;2832;50.864;12.186;2023-07-09T12:11:03;0.50;;;0.50;;
5620;SDS011;2832;50.864;12.186;2023-07-09T12:13:36;0.40;;;0.40;;
5620;SDS011;2832;50.864;12.186;2023-07-09T12:16:17;0.40;;;0.40;;
5620;SDS011;2832;50.864;12.186;2023-07-09T12:18:53;0.40;;;0.40;;
5620;SDS011;2832;50.864;12.186;2023-07-09T12:21:21;0.40;;;0.40;;
5620;SDS011;2832;50.864;12.186;2023-07-09T12:23:50;0.40;;;0.40;;
5620;SDS011;2832;50.864;12.186;2023-07-09T12:26:18;0.40;;;0.40;;
5620;SDS011;2832;50.864;12.186;2023-07-09T12:28:51;0.40;;;0.40;;
5620;SDS011;2832;50.864;12.186;2023-07-09T12:31:21;0.30;;;0.30;;
5620;SDS011;2832;50.864;12.186;2023-07-09T12:33:54;0.30;;;0.30;;
5620;SDS011;2832;50.864;12.186;2023-07-09T12:36:25;0.40;;;0.40;;
5620;SDS011;2832;50.864;12.186;2023-07-09T12:38:55;0.40;;;0.40;;
5620;SDS011;2832;50.864;12.186;2023-07-09T12:41:27;0.40;;;0.40;;
5620;SDS011;2832;50.864;12.186;2023-07-09T12:43:57;0.30;;;0.30;;
5620;SDS011;2832;50.864;12.186;2023-07-09T12:46:26;0.40;;;0.40;;
5620;SDS011;2832;50.864;12.186;2023-07-09T12:49:04;0.40;;;0.40;;
5620;SDS011;2832;50.864;12.186;2023-07-09T12:51:36;0.32;;;0.32;;
5620;SDS011;2832;50.864;12.186;2023-07-09T12:54:11;0.40;;;0.40;;
5620;SDS011;2832;50.864;12.186;2023-07-09T12:56:41;0.40;;;0.40;;
5620;SDS011;2832;50.864;12.186;2023-07-09T12:59:15;0.40;;;0.40;;
5620;SDS011;2832;50.864;12.186;2023-07-09T13:01:49;0.40;;;0.40;;
5620;SDS011;2832;50.864;12.186;2023-07-09T13:04:27;0.40;;;0.40;;
5620;SDS011;2832;50.864;12.186;2023-07-09T13:06:56;0.40;;;0.40;;
5620;SDS011;2832;50.864;12.186;2023-07-09T13:09:26;0.40;;;0.40;;
5620;SDS011;2832;50.864;12.186;2023-07-09T13:11:55;0.30;;;0.30;;
5620;SDS011;2832;50.864;12.186;2023-07-09T13:14:29;0.40;;;0.40;;
5620;SDS011;2832;50.864;12.186;2023-07-09T13:17:03;0.30;;;0.30;;
5620;SDS011;2832;50.864;12.186;2023-07-09T13:19:34;0.40;;;0.40;;
5620;SDS011;2832;50.864;12.186;2023-07-09T13:22:04;0.30;;;0.30;;
5620;SDS011;2832;50.864;12.186;2023-07-09T13:24:32;0.40;;;0.40;;
5620;SDS011;2832;50.864;12.186;2023-07-09T13:27:01;0.40;;;0.40;;
5620;SDS011;2832;50.864;12.186;2023-07-09T13:29:36;0.40;;;0.40;;
5620;SDS011;2832;50.864;12.186;2023-07-09T13:32:09;0.40;;;0.40;;
5620;SDS011;2832;50.864;12.186;2023-07-09T13:34:39;0.40;;;0.40;;
5620;SDS011;2832;50.864;12.186;2023-07-09T13:37:11;0.30;;;0.30;;
5620;SDS011;2832;50.864;12.186;2023-07-09T13:39:41;0.40;;;0.40;;
5620;SDS011;2832;50.864;12.186;2023-07-09T13:42:12;0.40;;;0.40;;
5620;SDS011;2832;50.864;12.186;2023-07-09T13:44:43;0.32;;;0.32;;
5620;SDS011;2832;50.864;12.186;2023-07-09T13:47:17;0.40;;;0.40;;
5620;SDS011;2832;50.864;12.186;2023-07-09T13:49:50;0.30;;;0.30;;
5620;SDS011;2832;50.864;12.186;2023-07-09T13:52:22;0.40;;;0.40;;
5620;SDS011;2832;50.864;12.186;2023-07-09T13:54:51;0.40;;;0.40;;
5620;SDS011;2832;50.864;12.186;2023-07-09T13:57:25;0.40;;;0.40;;
5620;SDS011;2832;50.864;12.186;2023-07-09T13:59:53;0.38;;;0.38;;
5620;SDS011;2832;50.864;12.186;2023-07-09T14:02:24;0.40;;;0.40;;
5620;SDS011;2832;50.864;12.186;2023-07-09T14:05:00;0.40;;;0.40;;
5620;SDS011;2832;50.864;12.186;2023-07-09T14:07:34;0.32;;;0.32;;
5620;SDS011;2832;50.864;12.186;2023-07-09T14:10:07;0.40;;;0.40;;
5620;SDS011;2832;50.864;12.186;2023-07-09T14:12:44;0.40;;;0.40;;
5620;SDS011;2832;50.864;12.186;2023-07-09T14:15:15;0.30;;;0.30;;
5620;SDS011;2832;50.864;12.186;2023-07-09T14:17:47;0.40;;;0.40;;
5620;SDS011;2832;50.864;12.186;2023-07-09T14:20:17;0.40;;;0.40;;
5620;SDS011;2832;50.864;12.186;2023-07-09T14:22:47;0.30;;;0.30;;
5620;SDS011;2832;50.864;12.186;2023-07-09T14:25:17;0.40;;;0.40;;
5620;SDS011;2832;50.864;12.186;2023-07-09T14:27:55;0.40;;;0.40;;
5620;SDS011;2832;50.864;12.186;2023-07-09T14:30:24;0.40;;;0.40;;
5620;SDS011;2832;50.864;12.186;2023-07-09T14:32:59;0.30;;;0.30;;
5620;SDS011;2832;50.864;12.186;2023-07-09T14:35:31;0.40;;;0.40;;
5620;SDS011;2832;50.864;12.186;2023-07-09T14:38:01;0.30;;;0.30;;
5620;SDS011;2832;50.864;12.186;2023-07-09T14:40:42;0.40;;;0.40;;
5620;SDS011;2832;50.864;12.186;2023-07-09T14:43:12;0.30;;;0.30;;
5620;SDS011;2832;50.864;12.186;2023-07-09T14:45:46;0.43;;;0.43;;
5620;SDS011;2832;50.864;12.186;2023-07-09T14:48:16;0.40;;;0.40;;
5620;SDS011;2832;50.864;12.186;2023-07-09T14:50:48;0.40;;;0.40;;
5620;SDS011;2832;50.864;12.186;2023-07-09T14:53:20;0.40;;;0.40;;
5620;SDS011;2832;50.864;12.186;2023-07-09T14:55:51;0.40;;;0.40;;
5620;SDS011;2832;50.864;12.186;2023-07-09T14:58:20;0.40;;;0.40;;
5620;SDS011;2832;50.864;12.186;2023-07-09T15:00:51;0.40;;;0.40;;
5620;SDS011;2832;50.864;12.186;2023-07-09T15:03:27;0.40;;;0.40;;
5620;SDS011;2832;50.864;12.186;2023-07-09T15:05:58;0.40;;;0.40;;
5620;SDS011;2832;50.864;12.186;2023-07-09T15:08:30;0.40;;;0.40;;
5620;SDS011;2832;50.864;12.186;2023-07-09T15:11:03;0.40;;;0.40;;
5620;SDS011;2832;50.864;12.186;2023-07-09T15:13:35;0.30;;;0.30;;
5620;SDS011;2832;50.864;12.186;2023-07-09T15:16:06;0.40;;;0.40;;
5620;SDS011;2832;50.864;12.186;2023-07-09T15:18:35;0.32;;;0.32;;
5620;SDS011;2832;50.864;12.186;2023-07-09T15:21:08;0.40;;;0.40;;
5620;SDS011;2832;50.864;12.186;2023-07-09T15:23:40;0.40;;;0.40;;
5620;SDS011;2832;50.864;12.186;2023-07-09T15:26:12;0.40;;;0.40;;
5620;SDS011;2832;50.864;12.186;2023-07-09T15:28:41;0.40;;;0.40;;